createdAt,value
2023-02-10T00:02:03.241Z,100468.22
2023-02-10T00:04:52.274Z,100473.02
2023-02-10T00:07:41.003Z,100471.34
2023-02-10T00:10:29.705Z,100465.00
2023-02-10T00:13:18.468Z,100453.80
2023-02-10T00:16:10.665Z,100448.35
2023-02-10T00:18:59.435Z,100446.73
2023-02-10T00:21:31.002Z,100438.68
2023-02-10T00:24:20.259Z,100433.70
2023-02-10T00:27:09.244Z,100433.13
2023-02-10T00:29:58.179Z,100431.14
2023-02-10T00:32:47.233Z,100430.56
2023-02-10T00:35:38.183Z,100429.98
2023-02-10T00:38:27.397Z,100428.16
2023-02-10T00:41:18.574Z,100435.90
2023-02-10T00:44:07.488Z,100439.38
2023-02-10T00:46:56.351Z,100440.48
2023-02-10T00:49:45.322Z,100443.02
2023-02-10T00:52:34.242Z,100444.95
2023-02-10T00:55:23.008Z,100444.16
2023-02-10T00:58:11.914Z,100449.14
2023-02-10T01:01:00.766Z,100443.40
2023-02-10T01:03:49.576Z,100444.26
2023-02-10T01:06:38.594Z,100436.20
2023-02-10T01:09:17.975Z,100435.15
2023-02-10T01:12:08.522Z,100432.86
2023-02-10T01:14:57.181Z,100426.81
2023-02-10T01:17:46.480Z,100429.42
2023-02-10T01:20:38.117Z,100432.45
2023-02-10T01:23:27.043Z,100433.79
2023-02-10T01:26:16.661Z,100432.40
2023-02-10T01:29:05.760Z,100431.13
2023-02-10T01:31:54.580Z,100424.45
2023-02-10T01:34:28.393Z,100416.61
2023-02-10T01:37:17.299Z,100409.20
2023-02-10T01:40:08.563Z,100409.54
2023-02-10T01:42:57.256Z,100410.06
2023-02-10T01:45:46.724Z,100411.58
2023-02-10T01:48:35.903Z,100415.91
2023-02-10T01:51:38.890Z,100420.45
2023-02-10T01:54:33.283Z,100419.79
2023-02-10T01:57:23.521Z,100421.82
2023-02-10T02:00:14.838Z,100420.23
2023-02-10T02:03:05.086Z,100419.26
2023-02-10T02:05:54.006Z,100413.56
2023-02-10T02:08:43.202Z,100406.23
2023-02-10T02:11:42.512Z,100405.16
2023-02-10T02:14:38.671Z,100401.69
2023-02-10T02:17:34.416Z,100403.91
2023-02-10T02:21:00.753Z,100414.17
2023-02-10T02:24:15.105Z,100399.38
2023-02-10T02:27:18.651Z,100386.19
2023-02-10T02:30:35.900Z,100385.42
2023-02-10T02:33:28.072Z,100387.98
2023-02-10T02:36:23.787Z,100394.48
2023-02-10T02:39:12.695Z,100393.30
2023-02-10T02:42:20.358Z,100394.38
2023-02-10T02:45:14.780Z,100390.54
2023-02-10T02:48:17.894Z,100384.42
2023-02-10T02:51:15.472Z,100386.73
2023-02-10T02:54:14.871Z,100386.37
2023-02-10T02:57:11.221Z,100385.73
2023-02-10T03:00:06.059Z,100385.17
2023-02-10T03:02:55.110Z,100386.45
2023-02-10T03:05:43.794Z,100385.33
2023-02-10T03:08:35.318Z,100386.55
2023-02-10T03:11:23.883Z,100389.20
2023-02-10T03:14:12.608Z,100387.56
2023-02-10T03:17:01.352Z,100389.31
2023-02-10T03:19:50.552Z,100390.61
2023-02-10T03:22:39.477Z,100391.02
2023-02-10T03:25:17.629Z,100396.80
2023-02-10T03:28:06.698Z,100386.41
2023-02-10T03:30:55.725Z,100386.83
2023-02-10T03:33:44.498Z,100388.11
2023-02-10T03:36:33.944Z,100393.16
2023-02-10T03:39:22.590Z,100389.34
2023-02-10T03:42:11.716Z,100389.83
2023-02-10T03:45:00.350Z,100390.52
2023-02-10T03:47:49.170Z,100389.11
2023-02-10T03:50:37.854Z,100394.96
2023-02-10T03:53:26.920Z,100397.80
2023-02-10T03:56:15.948Z,100400.89
2023-02-10T03:59:05.600Z,100399.68
2023-02-10T04:01:54.347Z,100402.34
2023-02-10T04:04:43.271Z,100405.80
2023-02-10T04:07:32.070Z,100407.05
2023-02-10T04:10:21.226Z,100408.34
2023-02-10T04:13:10.034Z,100406.77
2023-02-10T04:15:41.658Z,100406.08
2023-02-10T04:18:30.336Z,100405.72
2023-02-10T04:21:19.200Z,100406.65
2023-02-10T04:24:07.943Z,100407.89
2023-02-10T04:26:56.770Z,100398.35
2023-02-10T04:29:45.477Z,100403.64
2023-02-10T04:32:34.130Z,100404.86
2023-02-10T04:35:22.882Z,100402.05
2023-02-10T04:38:11.817Z,100403.49
2023-02-10T04:40:43.564Z,100408.56
2023-02-10T04:43:32.384Z,100414.11
2023-02-10T04:46:21.302Z,100417.95
2023-02-10T04:49:10.055Z,100423.78
2023-02-10T04:51:58.851Z,100423.88
2023-02-10T04:54:47.618Z,100417.48
2023-02-10T04:57:36.416Z,100416.51
2023-02-10T05:00:25.579Z,100417.71
2023-02-10T05:03:04.854Z,100417.73
2023-02-10T05:05:53.837Z,100416.86
2023-02-10T05:08:43.505Z,100413.83
2023-02-10T05:11:32.380Z,100421.70
2023-02-10T05:14:21.140Z,100430.58
2023-02-10T05:17:09.840Z,100425.94
2023-02-10T05:19:58.450Z,100424.11
2023-02-10T05:22:47.420Z,100424.70
2023-02-10T05:25:36.281Z,100430.47
2023-02-10T05:28:25.209Z,100435.83
2023-02-10T05:31:14.238Z,100433.70
2023-02-10T05:34:03.112Z,100442.23
2023-02-10T05:36:44.511Z,100447.10
2023-02-10T05:39:33.255Z,100453.18
2023-02-10T05:42:22.023Z,100463.81
2023-02-10T05:45:11.228Z,100464.92
2023-02-10T05:47:59.977Z,100460.39
2023-02-10T05:50:51.989Z,100455.89
2023-02-10T05:53:40.651Z,100451.91
2023-02-10T05:56:29.456Z,100454.20
2023-02-10T05:59:18.162Z,100458.52
2023-02-10T06:02:07.013Z,100464.95
2023-02-10T06:04:55.970Z,100457.44
2023-02-10T06:07:44.845Z,100455.36
2023-02-10T06:10:34.027Z,100461.48
2023-02-10T06:13:05.748Z,100459.41
2023-02-10T06:15:54.694Z,100457.19
2023-02-10T06:18:44.947Z,100460.83
2023-02-10T06:21:25.161Z,100466.41
2023-02-10T06:24:14.403Z,100475.27
2023-02-10T06:27:03.172Z,100476.42
2023-02-10T06:29:51.736Z,100475.92
2023-02-10T06:32:40.467Z,100478.71
2023-02-10T06:35:29.103Z,100483.04
2023-02-10T06:38:18.021Z,100484.94
2023-02-10T06:41:07.255Z,100494.27
2023-02-10T06:43:55.888Z,100493.37
2023-02-10T06:46:44.505Z,100491.58
2023-02-10T06:49:21.863Z,100490.41
2023-02-10T06:51:50.548Z,100484.98
2023-02-10T06:54:39.255Z,100485.13
2023-02-10T06:57:27.945Z,100491.80
2023-02-10T07:00:17.264Z,100490.71
2023-02-10T07:03:06.014Z,100489.69
2023-02-10T07:05:54.704Z,100492.90
2023-02-10T07:08:43.307Z,100501.13
2023-02-10T07:11:15.097Z,100503.15
2023-02-10T07:14:03.917Z,100498.52
2023-02-10T07:16:52.852Z,100493.68
2023-02-10T07:19:41.648Z,100492.91
2023-02-10T07:22:30.484Z,100492.95
2023-02-10T07:25:19.609Z,100494.42
2023-02-10T07:28:08.677Z,100502.14
2023-02-10T07:30:57.453Z,100507.14
2023-02-10T07:33:46.381Z,100503.33
2023-02-10T07:36:17.065Z,100500.16
2023-02-10T07:39:05.908Z,100495.81
2023-02-10T07:41:54.889Z,100494.76
2023-02-10T07:44:23.424Z,100496.48
2023-02-10T07:47:12.141Z,100492.52
2023-02-10T07:49:40.668Z,100493.45
2023-02-10T07:52:29.307Z,100492.25
2023-02-10T07:55:18.297Z,100497.23
2023-02-10T07:58:07.424Z,100491.38
2023-02-10T08:00:56.143Z,100492.59
2023-02-10T08:03:33.436Z,100496.91
2023-02-10T08:06:23.632Z,100506.07
2023-02-10T08:09:12.325Z,100503.20
2023-02-10T08:12:01.038Z,100497.44
2023-02-10T08:14:49.622Z,100501.08
2023-02-10T08:17:38.852Z,100494.02
2023-02-10T08:20:28.101Z,100502.88
2023-02-10T08:23:18.392Z,100506.81
2023-02-10T08:26:09.035Z,100515.98
2023-02-10T08:28:59.683Z,100518.22
2023-02-10T08:31:51.610Z,100524.52
2023-02-10T08:34:25.479Z,100526.27
2023-02-10T08:37:14.796Z,100523.36
2023-02-10T08:39:46.253Z,100517.44
2023-02-10T08:42:35.424Z,100514.63
2023-02-10T08:45:24.089Z,100512.51
2023-02-10T08:48:13.097Z,100519.23
2023-02-10T08:51:05.572Z,100515.27
2023-02-10T08:53:56.178Z,100512.48
2023-02-10T08:56:45.575Z,100511.63
2023-02-10T08:59:34.300Z,100506.20
2023-02-10T09:02:22.947Z,100512.77
2023-02-10T09:05:11.612Z,100521.10
2023-02-10T09:08:00.205Z,100515.40
2023-02-10T09:10:49.357Z,100511.84
2023-02-10T09:13:38.134Z,100510.86
2023-02-10T09:16:26.995Z,100509.42
2023-02-10T09:19:15.687Z,100512.88
2023-02-10T09:22:05.161Z,100518.67
2023-02-10T09:24:55.105Z,100521.88
2023-02-10T09:27:33.603Z,100524.41
2023-02-10T09:30:22.501Z,100522.15
2023-02-10T09:33:11.059Z,100512.66
2023-02-10T09:35:59.766Z,100518.80
2023-02-10T09:38:51.353Z,100521.43
2023-02-10T09:41:56.125Z,100518.52
2023-02-10T09:44:51.195Z,100509.84
2023-02-10T09:47:48.279Z,100505.66
2023-02-10T09:50:51.984Z,100515.98
2023-02-10T09:53:40.639Z,100530.05
2023-02-10T09:56:30.466Z,100540.11
2023-02-10T09:59:23.586Z,100540.95
2023-02-10T10:02:19.229Z,100536.77
2023-02-10T10:05:20.226Z,100529.90
2023-02-10T10:08:17.783Z,100522.68
2023-02-10T10:11:28.319Z,100512.73
2023-02-10T10:14:20.204Z,100504.91
2023-02-10T10:17:36.010Z,100503.75
2023-02-10T10:20:38.192Z,100507.36
2023-02-10T10:23:43.260Z,100509.08
2023-02-10T10:26:57.681Z,100508.98
2023-02-10T10:29:53.038Z,100514.20
2023-02-10T10:32:45.355Z,100509.84
2023-02-10T10:35:40.287Z,100513.64
2023-02-10T10:38:32.060Z,100510.92
2023-02-10T10:41:24.685Z,100513.54
2023-02-10T10:44:17.386Z,100513.98
2023-02-10T10:47:13.505Z,100509.15
2023-02-10T10:49:47.470Z,100507.83
2023-02-10T10:52:38.313Z,100509.77
2023-02-10T10:55:32.779Z,100509.30
2023-02-10T10:58:27.582Z,100506.62
2023-02-10T11:01:18.274Z,100505.19
2023-02-10T11:04:12.581Z,100503.30
2023-02-10T11:07:02.381Z,100496.27
2023-02-10T11:09:52.865Z,100498.80
2023-02-10T11:12:45.919Z,100503.05
2023-02-10T11:15:33.013Z,100505.89
2023-02-10T11:18:23.875Z,100499.23
2023-02-10T11:21:12.506Z,100502.20
2023-02-10T11:23:52.620Z,100494.73
2023-02-10T11:26:41.283Z,100493.14
2023-02-10T11:29:18.633Z,100487.04
2023-02-10T11:32:17.723Z,100478.48
2023-02-10T11:35:15.676Z,100476.23
2023-02-10T11:38:08.418Z,100478.17
2023-02-10T11:40:59.169Z,100473.17
2023-02-10T11:43:48.690Z,100482.11
2023-02-10T11:46:37.318Z,100481.29
2023-02-10T11:49:31.042Z,100482.71
2023-02-10T11:52:22.908Z,100475.76
2023-02-10T11:55:14.642Z,100467.82
2023-02-10T11:58:39.913Z,100469.45
2023-02-10T12:01:48.284Z,100474.59
2023-02-10T12:04:54.401Z,100481.87
2023-02-10T12:07:58.503Z,100478.11
2023-02-10T12:10:51.716Z,100475.83
2023-02-10T12:13:48.552Z,100477.40
2023-02-10T12:16:49.295Z,100479.16
2023-02-10T12:19:47.620Z,100478.36
2023-02-10T12:22:45.070Z,100472.76
2023-02-10T12:25:40.708Z,100478.52
2023-02-10T12:28:40.069Z,100478.52
2023-02-10T12:31:27.812Z,100478.61
2023-02-10T12:34:43.432Z,100478.65
2023-02-10T12:37:28.283Z,100480.79
2023-02-10T12:40:27.796Z,100481.02
2023-02-10T12:43:23.651Z,100485.67
2023-02-10T12:46:20.203Z,100495.20
2023-02-10T12:49:23.608Z,100496.03
2023-02-10T12:52:18.449Z,100501.96
2023-02-10T12:55:15.953Z,100501.98
2023-02-10T12:58:14.429Z,100494.54
2023-02-10T13:00:48.636Z,100492.69
2023-02-10T13:03:39.930Z,100492.85
2023-02-10T13:06:21.544Z,100489.06
2023-02-10T13:09:17.624Z,100491.00
2023-02-10T13:12:16.356Z,100491.17
2023-02-10T13:15:13.578Z,100490.55
2023-02-10T13:18:02.802Z,100490.63
2023-02-10T13:21:01.516Z,100493.06
2023-02-10T13:23:54.727Z,100492.79
2023-02-10T13:27:01.078Z,100486.82
2023-02-10T13:30:00.571Z,100489.54
2023-02-10T13:32:59.293Z,100489.58
2023-02-10T13:35:49.817Z,100501.27
2023-02-10T13:38:39.191Z,100498.64
2023-02-10T13:41:46.575Z,100506.02
2023-02-10T13:44:44.159Z,100514.37
2023-02-10T13:47:37.714Z,100516.40
2023-02-10T13:50:32.389Z,100522.33
2023-02-10T13:53:42.533Z,100522.83
2023-02-10T13:56:33.483Z,100524.91
2023-02-10T13:59:35.148Z,100521.09
2023-02-10T14:02:22.113Z,100518.56
2023-02-10T14:05:25.550Z,100521.84
2023-02-10T14:08:15.571Z,100521.09
2023-02-10T14:11:26.571Z,100520.72
2023-02-10T14:14:21.844Z,100515.34
2023-02-10T14:17:30.143Z,100521.09
2023-02-10T14:20:25.253Z,100519.02
2023-02-10T14:23:22.663Z,100522.56
2023-02-10T14:26:18.715Z,100527.34
2023-02-10T14:29:13.199Z,100524.71
2023-02-10T14:31:56.327Z,100519.89
2023-02-10T14:34:29.985Z,100520.52
2023-02-10T14:37:20.991Z,100521.70
2023-02-10T14:40:19.408Z,100519.20
2023-02-10T14:43:14.713Z,100516.52
2023-02-10T14:46:04.313Z,100516.81
2023-02-10T14:48:58.986Z,100523.06
2023-02-10T14:51:41.615Z,100522.96
2023-02-10T14:54:30.896Z,100525.77
2023-02-10T14:57:03.506Z,100527.02
2023-02-10T14:59:56.936Z,100525.85
2023-02-10T15:02:53.027Z,100531.70
2023-02-10T15:05:50.964Z,100533.89
2023-02-10T15:08:44.913Z,100534.82
2023-02-10T15:11:55.654Z,100538.42
2023-02-10T15:14:50.540Z,100536.19
2023-02-10T15:17:42.525Z,100533.38
2023-02-10T15:20:33.049Z,100528.84
2023-02-10T15:23:29.046Z,100534.30
2023-02-10T15:26:21.165Z,100531.95
2023-02-10T15:29:13.270Z,100535.90
2023-02-10T15:32:03.285Z,100532.59
2023-02-10T15:34:53.194Z,100537.84
2023-02-10T15:37:42.112Z,100535.95
2023-02-10T15:40:31.258Z,100538.64
2023-02-10T15:43:26.501Z,100541.14
2023-02-10T15:46:18.278Z,100540.34
2023-02-10T15:49:09.552Z,100544.89
2023-02-10T15:51:58.126Z,100538.62
2023-02-10T15:54:49.422Z,100548.83
2023-02-10T15:57:38.281Z,100547.90
2023-02-10T16:00:29.684Z,100553.58
2023-02-10T16:03:18.335Z,100548.60
2023-02-10T16:06:09.574Z,100549.13
2023-02-10T16:08:58.203Z,100549.77
2023-02-10T16:11:47.088Z,100549.45
2023-02-10T16:14:35.892Z,100548.64
2023-02-10T16:17:28.456Z,100551.64
2023-02-10T16:20:20.819Z,100549.80
2023-02-10T16:22:52.133Z,100551.32
2023-02-10T16:25:41.374Z,100550.67
2023-02-10T16:28:30.253Z,100549.13
2023-02-10T16:31:19.794Z,100548.64
2023-02-10T16:34:08.628Z,100548.32
2023-02-10T16:36:58.886Z,100546.77
2023-02-10T16:39:49.424Z,100548.65
2023-02-10T16:42:39.076Z,100552.45
2023-02-10T16:45:29.184Z,100558.03
2023-02-10T16:48:18.312Z,100562.59
2023-02-10T16:51:06.928Z,100567.77
2023-02-10T16:53:55.577Z,100564.97
2023-02-10T16:56:44.743Z,100564.98
2023-02-10T16:59:33.630Z,100563.84
2023-02-10T17:02:22.297Z,100565.35
2023-02-10T17:05:12.094Z,100570.46
2023-02-10T17:08:01.050Z,100582.04
2023-02-10T17:10:51.714Z,100581.73
2023-02-10T17:13:40.867Z,100583.57
2023-02-10T17:16:35.192Z,100585.01
2023-02-10T17:19:27.218Z,100587.58
2023-02-10T17:22:15.813Z,100589.94
2023-02-10T17:25:05.208Z,100591.27
2023-02-10T17:27:54.862Z,100596.27
2023-02-10T17:30:44.105Z,100590.98
2023-02-10T17:33:32.836Z,100594.67
2023-02-10T17:36:23.465Z,100593.94
2023-02-10T17:39:33.737Z,100591.70
2023-02-10T17:42:22.401Z,100593.28
2023-02-10T17:45:13.597Z,100587.77
2023-02-10T17:48:02.763Z,100582.90
2023-02-10T17:50:51.738Z,100578.40
2023-02-10T17:53:40.968Z,100578.41
2023-02-10T17:56:29.778Z,100577.50
2023-02-10T17:59:18.704Z,100578.95
2023-02-10T18:02:10.193Z,100573.07
2023-02-10T18:04:59.187Z,100579.01
2023-02-10T18:07:47.787Z,100575.52
2023-02-10T18:10:38.113Z,100574.84
2023-02-10T18:13:27.611Z,100571.80
2023-02-10T18:16:17.100Z,100566.21
2023-02-10T18:18:48.654Z,100561.54
2023-02-10T18:21:37.292Z,100561.22
2023-02-10T18:24:26.285Z,100558.94
2023-02-10T18:27:14.976Z,100561.42
2023-02-10T18:29:46.361Z,100561.57
2023-02-10T18:32:35.442Z,100563.91
2023-02-10T18:35:24.095Z,100555.49
2023-02-10T18:38:12.774Z,100555.52
2023-02-10T18:41:01.909Z,100556.27
2023-02-10T18:43:50.650Z,100550.79
2023-02-10T18:46:39.270Z,100550.98
2023-02-10T18:49:28.420Z,100550.16
2023-02-10T18:52:17.633Z,100550.30
2023-02-10T18:55:07.245Z,100546.34
2023-02-10T18:57:58.798Z,100547.52
2023-02-10T19:00:48.306Z,100553.95
2023-02-10T19:03:37.587Z,100558.39
2023-02-10T19:06:26.199Z,100557.20
2023-02-10T19:09:16.104Z,100554.56
2023-02-10T19:12:06.468Z,100557.73
2023-02-10T19:14:55.225Z,100554.80
2023-02-10T19:17:43.812Z,100557.04
2023-02-10T19:20:33.121Z,100566.69
2023-02-10T19:23:13.189Z,100563.10
2023-02-10T19:26:01.748Z,100567.21
2023-02-10T19:28:50.640Z,100568.97
2023-02-10T19:31:39.487Z,100568.08
2023-02-10T19:34:28.768Z,100566.62
2023-02-10T19:37:17.452Z,100572.77
2023-02-10T19:40:08.017Z,100574.95
2023-02-10T19:42:57.149Z,100570.46
2023-02-10T19:45:28.798Z,100568.43
2023-02-10T19:48:18.294Z,100574.81
2023-02-10T19:50:52.248Z,100576.20
2023-02-10T19:53:41.391Z,100576.39
2023-02-10T19:56:30.081Z,100572.80
2023-02-10T19:59:18.847Z,100572.99
2023-02-10T20:02:08.640Z,100569.09
2023-02-10T20:04:57.309Z,100561.62
2023-02-10T20:07:46.100Z,100558.21
2023-02-10T20:10:34.796Z,100560.92
2023-02-10T20:13:08.416Z,100555.17
2023-02-10T20:15:59.491Z,100550.95
2023-02-10T20:18:48.122Z,100545.48
2023-02-10T20:21:39.509Z,100546.13
2023-02-10T20:24:29.105Z,100544.39
2023-02-10T20:27:13.540Z,100543.61
2023-02-10T20:30:02.262Z,100540.61
2023-02-10T20:32:50.918Z,100544.93
2023-02-10T20:35:40.882Z,100542.61
2023-02-10T20:38:30.546Z,100542.80
2023-02-10T20:41:21.302Z,100541.41
2023-02-10T20:44:09.994Z,100540.07
2023-02-10T20:46:58.593Z,100541.47
2023-02-10T20:49:47.212Z,100545.58
2023-02-10T20:52:36.616Z,100543.10
2023-02-10T20:55:25.215Z,100545.62
2023-02-10T20:58:13.881Z,100549.65
2023-02-10T21:01:04.908Z,100544.06
2023-02-10T21:03:53.537Z,100542.23
2023-02-10T21:06:43.926Z,100536.27
2023-02-10T21:09:33.179Z,100540.48
2023-02-10T21:12:10.588Z,100529.63
2023-02-10T21:14:59.274Z,100523.44
2023-02-10T21:17:48.232Z,100526.23
2023-02-10T21:20:36.833Z,100527.85
2023-02-10T21:23:25.575Z,100534.83
2023-02-10T21:26:14.851Z,100525.33
2023-02-10T21:29:03.617Z,100530.90
2023-02-10T21:31:52.365Z,100530.71
2023-02-10T21:34:41.869Z,100526.70
2023-02-10T21:37:30.576Z,100524.95
2023-02-10T21:40:19.312Z,100521.13
2023-02-10T21:43:08.773Z,100521.73
2023-02-10T21:45:57.607Z,100520.92
2023-02-10T21:48:46.269Z,100516.77
2023-02-10T21:51:34.975Z,100512.66
2023-02-10T21:54:26.221Z,100512.98
2023-02-10T21:57:18.378Z,100518.44
2023-02-10T22:00:08.582Z,100512.62
2023-02-10T22:02:41.481Z,100507.95
2023-02-10T22:05:30.526Z,100496.63
2023-02-10T22:08:19.644Z,100488.48
2023-02-10T22:11:10.806Z,100489.70
2023-02-10T22:13:59.564Z,100487.18
2023-02-10T22:16:48.602Z,100483.89
2023-02-10T22:19:37.662Z,100479.70
2023-02-10T22:22:26.429Z,100483.09
2023-02-10T22:25:15.289Z,100484.48
2023-02-10T22:28:04.115Z,100482.14
2023-02-10T22:30:52.775Z,100482.50
2023-02-10T22:33:41.355Z,100472.63
2023-02-10T22:36:30.302Z,100474.02
2023-02-10T22:39:18.986Z,100473.20
2023-02-10T22:42:08.548Z,100477.19
2023-02-10T22:44:57.197Z,100473.95
2023-02-10T22:47:46.252Z,100471.19
2023-02-10T22:50:34.894Z,100467.09
2023-02-10T22:53:23.459Z,100467.52
2023-02-10T22:56:14.716Z,100459.81
2023-02-10T22:59:05.305Z,100452.66
2023-02-10T23:01:57.329Z,100456.30
2023-02-10T23:04:46.421Z,100464.43
2023-02-10T23:07:35.145Z,100465.88
2023-02-10T23:10:23.793Z,100465.97
2023-02-10T23:13:12.432Z,100462.65
2023-02-10T23:16:01.167Z,100457.23
2023-02-10T23:18:49.804Z,100446.46
2023-02-10T23:21:38.515Z,100446.45
2023-02-10T23:24:27.357Z,100440.48
2023-02-10T23:27:15.962Z,100440.86
2023-02-10T23:30:05.794Z,100443.77
2023-02-10T23:32:54.425Z,100442.11
2023-02-10T23:35:44.341Z,100434.54
2023-02-10T23:38:33.097Z,100433.23
2023-02-10T23:41:21.994Z,100427.85
2023-02-10T23:44:11.338Z,100428.80
2023-02-10T23:46:59.989Z,100432.33
2023-02-10T23:49:51.032Z,100430.84
2023-02-10T23:52:22.408Z,100422.39
2023-02-10T23:55:11.392Z,100419.36
2023-02-10T23:57:59.999Z,100414.38
